sensor_id;sensor_type;location;lat;lon;timestamp;pressure;altitude;pressure_sealevel;temperature;humidity
57234;BME280;43090;52.604;13.318;2022-08-21T00:00:22;101043.47;;;19.00;100.00
57234;BME280;43090;52.604;13.318;2022-08-21T00:02:56;101052.28;;;18.66;100.00
57234;BME280;43090;52.604;13.318;2022-08-21T00:05:24;101057.13;;;18.90;100.00
57234;BME280;43090;52.604;13.318;2022-08-21T00:07:52;101021.84;;;18.54;100.00
57234;BME280;43090;52.604;13.318;2022-08-21T00:10:19;101064.19;;;19.01;100.00
57234;BME280;43090;52.604;13.318;2022-08-21T00:12:46;101065.47;;;19.15;100.00
57234;BME280;43090;52.604;13.318;2022-08-21T00:15:21;101017.44;;;18.89;100.00
57234;BME280;43090;52.604;13.318;2022-08-21T00:17:48;101040.34;;;18.77;100.00
57234;BME280;43090;52.604;13.318;2022-08-21T00:20:15;101068.66;;;19.10;100.00
57234;BME280;43090;52.604;13.318;2022-08-21T00:22:42;101069.25;;;18.86;100.00
57234;BME280;43090;52.604;13.318;2022-08-21T00:25:09;101027.81;;;18.58;100.00
57234;BME280;43090;52.604;13.318;2022-08-21T00:27:37;101060.13;;;18.51;100.00
57234;BME280;43090;52.604;13.318;2022-08-21T00:30:05;101016.34;;;18.46;100.00
57234;BME280;43090;52.604;13.318;2022-08-21T00:32:33;101047.88;;;18.47;100.00
57234;BME280;43090;52.604;13.318;2022-08-21T00:35:00;101053.06;;;18.76;100.00
57234;BME280;43090;52.604;13.318;2022-08-21T00:37:26;101027.31;;;18.26;100.00
57234;BME280;43090;52.604;13.318;2022-08-21T00:39:55;101057.41;;;18.51;100.00
57234;BME280;43090;52.604;13.318;2022-08-21T00:42:22;101025.09;;;18.40;100.00
57234;BME280;43090;52.604;13.318;2022-08-21T00:44:50;101041.44;;;18.30;100.00
57234;BME280;43090;52.604;13.318;2022-08-21T00:47:17;101011.53;;;18.40;100.00
57234;BME280;43090;52.604;13.318;2022-08-21T00:49:45;101069.41;;;18.85;100.00
57234;BME280;43090;52.604;13.318;2022-08-21T00:52:21;101058.47;;;18.58;100.00
57234;BME280;43090;52.604;13.318;2022-08-21T00:54:51;101047.72;;;18.67;100.00
57234;BME280;43090;52.604;13.318;2022-08-21T00:57:30;101048.94;;;18.54;100.00
57234;BME280;43090;52.604;13.318;2022-08-21T01:00:01;101066.34;;;18.61;100.00
57234;BME280;43090;52.604;13.318;2022-08-21T01:02:30;101046.56;;;18.69;100.00
57234;BME280;43090;52.604;13.318;2022-08-21T01:04:57;101040.44;;;18.49;100.00
57234;BME280;43090;52.604;13.318;2022-08-21T01:07:25;101053.06;;;18.58;100.00
57234;BME280;43090;52.604;13.318;2022-08-21T01:09:53;101015.31;;;18.29;100.00
57234;BME280;43090;52.604;13.318;2022-08-21T01:12:19;101028.50;;;18.60;100.00
57234;BME280;43090;52.604;13.318;2022-08-21T01:14:46;101051.13;;;18.69;100.00
57234;BME280;43090;52.604;13.318;2022-08-21T01:17:14;101042.06;;;18.42;100.00
57234;BME280;43090;52.604;13.318;2022-08-21T01:19:42;101007.94;;;18.21;100.00
57234;BME280;43090;52.604;13.318;2022-08-21T01:22:09;101017.88;;;18.12;100.00
57234;BME280;43090;52.604;13.318;2022-08-21T01:24:36;101052.25;;;18.30;100.00
57234;BME280;43090;52.604;13.318;2022-08-21T01:27:03;101015.66;;;17.88;100.00
57234;BME280;43090;52.604;13.318;2022-08-21T01:29:46;101031.78;;;18.18;100.00
57234;BME280;43090;52.604;13.318;2022-08-21T01:32:18;101025.78;;;17.96;100.00
57234;BME280;43090;52.604;13.318;2022-08-21T01:34:47;101032.28;;;18.03;100.00
57234;BME280;43090;52.604;13.318;2022-08-21T01:37:15;101024.69;;;18.17;100.00
57234;BME280;43090;52.604;13.318;2022-08-21T01:39:44;101032.66;;;18.18;100.00
57234;BME280;43090;52.604;13.318;2022-08-21T01:42:11;101054.34;;;18.18;100.00
57234;BME280;43090;52.604;13.318;2022-08-21T01:44:38;101052.47;;;18.19;100.00
57234;BME280;43090;52.604;13.318;2022-08-21T01:47:07;101043.06;;;17.85;100.00
57234;BME280;43090;52.604;13.318;2022-08-21T01:49:35;101057.44;;;17.86;100.00
57234;BME280;43090;52.604;13.318;2022-08-21T01:52:03;101041.94;;;18.15;100.00
57234;BME280;43090;52.604;13.318;2022-08-21T01:54:30;101050.81;;;18.08;100.00
57234;BME280;43090;52.604;13.318;2022-08-21T01:56:58;101063.47;;;18.17;100.00
57234;BME280;43090;52.604;13.318;2022-08-21T01:59:25;101044.34;;;18.19;100.00
57234;BME280;43090;52.604;13.318;2022-08-21T02:01:53;101011.63;;;18.02;100.00
57234;BME280;43090;52.604;13.318;2022-08-21T02:04:22;101030.84;;;18.09;100.00
57234;BME280;43090;52.604;13.318;2022-08-21T02:06:49;101049.34;;;18.13;100.00
57234;BME280;43090;52.604;13.318;2022-08-21T02:09:16;101070.69;;;17.98;100.00
57234;BME280;43090;52.604;13.318;2022-08-21T02:11:43;101071.44;;;17.81;100.00
57234;BME280;43090;52.604;13.318;2022-08-21T02:14:12;101050.41;;;17.65;100.00
57234;BME280;43090;52.604;13.318;2022-08-21T02:16:42;101042.75;;;17.98;100.00
57234;BME280;43090;52.604;13.318;2022-08-21T02:19:09;101037.72;;;17.65;100.00
57234;BME280;43090;52.604;13.318;2022-08-21T02:21:36;101057.97;;;17.61;100.00
57234;BME280;43090;52.604;13.318;2022-08-21T02:24:03;101016.94;;;17.56;100.00
57234;BME280;43090;52.604;13.318;2022-08-21T02:26:30;101032.78;;;17.51;100.00
57234;BME280;43090;52.604;13.318;2022-08-21T02:28:57;101060.31;;;17.84;100.00
57234;BME280;43090;52.604;13.318;2022-08-21T02:31:23;101040.94;;;17.41;100.00
57234;BME280;43090;52.604;13.318;2022-08-21T02:33:51;101029.88;;;17.05;100.00
57234;BME280;43090;52.604;13.318;2022-08-21T02:36:18;101037.53;;;17.29;100.00
57234;BME280;43090;52.604;13.318;2022-08-21T02:38:45;101036.13;;;17.15;100.00
57234;BME280;43090;52.604;13.318;2022-08-21T02:41:17;101020.78;;;17.16;100.00
57234;BME280;43090;52.604;13.318;2022-08-21T02:43:45;101052.97;;;17.09;100.00
57234;BME280;43090;52.604;13.318;2022-08-21T02:46:14;101006.84;;;16.91;100.00
57234;BME280;43090;52.604;13.318;2022-08-21T02:48:41;101025.16;;;17.27;100.00
57234;BME280;43090;52.604;13.318;2022-08-21T02:51:15;101031.75;;;16.95;100.00
57234;BME280;43090;52.604;13.318;2022-08-21T02:53:44;101003.97;;;17.12;100.00
57234;BME280;43090;52.604;13.318;2022-08-21T02:56:13;101042.53;;;17.24;100.00
57234;BME280;43090;52.604;13.318;2022-08-21T02:58:43;101034.72;;;17.11;100.00
57234;BME280;43090;52.604;13.318;2022-08-21T03:01:10;101058.03;;;17.22;100.00
57234;BME280;43090;52.604;13.318;2022-08-21T03:03:41;101055.16;;;17.43;100.00
57234;BME280;43090;52.604;13.318;2022-08-21T03:06:10;101024.75;;;16.82;100.00
57234;BME280;43090;52.604;13.318;2022-08-21T03:08:38;101035.84;;;16.89;100.00
57234;BME280;43090;52.604;13.318;2022-08-21T03:11:05;101047.94;;;17.24;100.00
57234;BME280;43090;52.604;13.318;2022-08-21T03:13:33;101041.25;;;16.89;100.00
57234;BME280;43090;52.604;13.318;2022-08-21T03:16:00;101047.81;;;17.16;100.00
57234;BME280;43090;52.604;13.318;2022-08-21T03:18:29;101026.03;;;17.18;100.00
57234;BME280;43090;52.604;13.318;2022-08-21T03:20:56;101003.56;;;16.78;100.00
57234;BME280;43090;52.604;13.318;2022-08-21T03:23:22;100994.03;;;17.03;100.00
57234;BME280;43090;52.604;13.318;2022-08-21T03:25:49;101034.41;;;17.14;100.00
57234;BME280;43090;52.604;13.318;2022-08-21T03:28:21;101010.66;;;16.89;100.00
57234;BME280;43090;52.604;13.318;2022-08-21T03:30:51;101016.63;;;16.82;100.00
57234;BME280;43090;52.604;13.318;2022-08-21T03:33:19;101032.47;;;16.97;100.00
57234;BME280;43090;52.604;13.318;2022-08-21T03:35:58;101070.44;;;16.86;100.00
57234;BME280;43090;52.604;13.318;2022-08-21T03:38:28;101034.41;;;16.65;100.00
57234;BME280;43090;52.604;13.318;2022-08-21T03:40:55;101031.88;;;16.54;100.00
57234;BME280;43090;52.604;13.318;2022-08-21T03:43:21;101017.34;;;16.45;100.00
57234;BME280;43090;52.604;13.318;2022-08-21T03:45:48;101053.19;;;16.57;100.00
57234;BME280;43090;52.604;13.318;2022-08-21T03:48:18;101030.59;;;16.58;100.00
57234;BME280;43090;52.604;13.318;2022-08-21T03:50:45;101030.00;;;16.84;100.00
57234;BME280;43090;52.604;13.318;2022-08-21T03:53:14;101013.22;;;16.71;100.00
57234;BME280;43090;52.604;13.318;2022-08-21T03:59:30;101066.56;;;16.49;100.00
57234;BME280;43090;52.604;13.318;2022-08-21T04:01:59;101055.03;;;16.47;100.00
57234;BME280;43090;52.604;13.318;2022-08-21T04:04:27;101043.22;;;16.48;100.00
57234;BME280;43090;52.604;13.318;2022-08-21T04:06:55;101021.31;;;16.31;100.00
57234;BME280;43090;52.604;13.318;2022-08-21T04:09:23;101057.88;;;16.36;100.00
57234;BME280;43090;52.604;13.318;2022-08-21T04:11:50;101039.94;;;16.25;100.00
57234;BME280;43090;52.604;13.318;2022-08-21T04:14:17;101076.13;;;16.63;100.00
57234;BME280;43090;52.604;13.318;2022-08-21T04:16:44;101022.41;;;15.99;100.00
57234;BME280;43090;52.604;13.318;2022-08-21T04:19:15;101067.28;;;16.51;100.00
57234;BME280;43090;52.604;13.318;2022-08-21T04:21:45;101044.38;;;16.36;100.00
57234;BME280;43090;52.604;13.318;2022-08-21T04:24:17;101051.19;;;16.30;100.00
57234;BME280;43090;52.604;13.318;2022-08-21T04:26:45;101027.66;;;16.11;100.00
57234;BME280;43090;52.604;13.318;2022-08-21T04:29:12;101057.09;;;16.14;100.00
57234;BME280;43090;52.604;13.318;2022-08-21T04:31:39;101078.44;;;16.17;100.00
57234;BME280;43090;52.604;13.318;2022-08-21T04:34:06;101039.66;;;15.87;100.00
57234;BME280;43090;52.604;13.318;2022-08-21T04:36:33;101082.28;;;16.24;100.00
57234;BME280;43090;52.604;13.318;2022-08-21T04:38:59;101021.31;;;16.31;100.00
57234;BME280;43090;52.604;13.318;2022-08-21T04:41:28;101052.31;;;16.37;100.00
57234;BME280;43090;52.604;13.318;2022-08-21T04:43:55;101072.06;;;16.18;100.00
57234;BME280;43090;52.604;13.318;2022-08-21T04:46:22;101012.03;;;15.74;100.00
57234;BME280;43090;52.604;13.318;2022-08-21T04:48:49;101035.69;;;15.81;100.00
57234;BME280;43090;52.604;13.318;2022-08-21T04:51:25;101032.00;;;15.92;100.00
57234;BME280;43090;52.604;13.318;2022-08-21T04:54:05;101039.41;;;15.90;100.00
57234;BME280;43090;52.604;13.318;2022-08-21T04:56:47;101057.31;;;15.91;100.00
57234;BME280;43090;52.604;13.318;2022-08-21T04:59:22;101050.38;;;15.98;100.00
57234;BME280;43090;52.604;13.318;2022-08-21T05:01:51;101050.53;;;15.97;100.00
57234;BME280;43090;52.604;13.318;2022-08-21T05:04:21;101038.91;;;16.16;100.00
57234;BME280;43090;52.604;13.318;2022-08-21T05:06:50;101070.94;;;16.40;100.00
57234;BME280;43090;52.604;13.318;2022-08-21T05:09:19;101056.03;;;16.46;100.00
57234;BME280;43090;52.604;13.318;2022-08-21T05:11:46;101072.81;;;16.30;100.00
57234;BME280;43090;52.604;13.318;2022-08-21T05:14:14;101066.72;;;16.57;100.00
57234;BME280;43090;52.604;13.318;2022-08-21T05:16:42;101078.25;;;16.69;100.00
57234;BME280;43090;52.604;13.318;2022-08-21T05:19:10;101089.78;;;16.81;100.00
57234;BME280;43090;52.604;13.318;2022-08-21T05:21:40;101097.31;;;16.77;100.00
57234;BME280;43090;52.604;13.318;2022-08-21T05:24:08;101091.50;;;16.72;100.00
57234;BME280;43090;52.604;13.318;2022-08-21T05:26:34;101080.53;;;16.64;100.00
57234;BME280;43090;52.604;13.318;2022-08-21T05:29:13;101078.22;;;16.49;100.00
57234;BME280;43090;52.604;13.318;2022-08-21T05:31:40;101080.47;;;16.35;100.00
57234;BME280;43090;52.604;13.318;2022-08-21T05:34:07;101081.66;;;16.42;100.00
57234;BME280;43090;52.604;13.318;2022-08-21T05:36:35;101100.00;;;16.48;100.00
57234;BME280;43090;52.604;13.318;2022-08-21T05:39:02;101107.69;;;16.53;100.00
57234;BME280;43090;52.604;13.318;2022-08-21T05:41:29;101093.16;;;16.44;100.00
57234;BME280;43090;52.604;13.318;2022-08-21T05:43:59;101082.19;;;16.45;100.00
57234;BME280;43090;52.604;13.318;2022-08-21T05:46:26;101098.59;;;16.73;100.00
57234;BME280;43090;52.604;13.318;2022-08-21T05:48:52;101086.09;;;16.72;100.00
57234;BME280;43090;52.604;13.318;2022-08-21T05:51:19;101095.88;;;16.54;100.00
57234;BME280;43090;52.604;13.318;2022-08-21T05:53:45;101096.00;;;16.52;100.00
57234;BME280;43090;52.604;13.318;2022-08-21T05:56:12;101108.47;;;17.04;98.49
57234;BME280;43090;52.604;13.318;2022-08-21T05:58:39;101104.69;;;16.65;100.00
57234;BME280;43090;52.604;13.318;2022-08-21T06:01:06;101122.50;;;16.58;100.00
57234;BME280;43090;52.604;13.318;2022-08-21T06:03:35;101112.47;;;16.90;100.00
57234;BME280;43090;52.604;13.318;2022-08-21T06:06:02;101120.13;;;16.85;100.00
57234;BME280;43090;52.604;13.318;2022-08-21T06:11:36;101070.72;;;16.73;98.53
57234;BME280;43090;52.604;13.318;2022-08-21T06:14:47;101126.13;;;16.98;96.61
57234;BME280;43090;52.604;13.318;2022-08-21T06:21:35;101060.78;;;16.83;95.29
57234;BME280;43090;52.604;13.318;2022-08-21T06:28:08;101059.66;;;16.95;96.09
57234;BME280;43090;52.604;13.318;2022-08-21T06:30:54;101072.34;;;16.95;96.99
57234;BME280;43090;52.604;13.318;2022-08-21T06:33:39;101082.72;;;16.99;92.54
57234;BME280;43090;52.604;13.318;2022-08-21T06:36:46;101059.34;;;16.79;94.83
57234;BME280;43090;52.604;13.318;2022-08-21T06:39:31;101099.47;;;17.52;92.94
57234;BME280;43090;52.604;13.318;2022-08-21T06:42:31;101060.94;;;16.91;94.05
57234;BME280;43090;52.604;13.318;2022-08-21T06:45:22;101105.16;;;17.39;91.77
57234;BME280;43090;52.604;13.318;2022-08-21T06:48:12;101093.63;;;17.47;92.87
57234;BME280;43090;52.604;13.318;2022-08-21T06:50:58;101069.72;;;17.42;91.59
57234;BME280;43090;52.604;13.318;2022-08-21T06:53:46;101127.63;;;17.69;89.80
57234;BME280;43090;52.604;13.318;2022-08-21T06:59:42;101060.91;;;17.01;94.76
57234;BME280;43090;52.604;13.318;2022-08-21T07:02:18;101093.63;;;17.47;91.06
57234;BME280;43090;52.604;13.318;2022-08-21T07:04:50;101071.44;;;17.34;92.71
57234;BME280;43090;52.604;13.318;2022-08-21T07:07:24;101072.88;;;17.18;91.82
57234;BME280;43090;52.604;13.318;2022-08-21T07:10:04;101068.28;;;17.48;89.55
57234;BME280;43090;52.604;13.318;2022-08-21T07:12:50;101058.53;;;17.55;90.66
57234;BME280;43090;52.604;13.318;2022-08-21T07:20:37;101054.44;;;17.98;86.79
57234;BME280;43090;52.604;13.318;2022-08-21T07:50:02;101050.88;;;18.26;78.47
57234;BME280;43090;52.604;13.318;2022-08-21T10:06:50;101059.34;;;20.35;58.61
57234;BME280;43090;52.604;13.318;2022-08-21T10:10:13;101040.00;;;20.62;60.78
57234;BME280;43090;52.604;13.318;2022-08-21T10:38:55;101043.28;;;21.07;50.90
57234;BME280;43090;52.604;13.318;2022-08-21T10:48:55;101087.28;;;21.85;47.62
57234;BME280;43090;52.604;13.318;2022-08-21T11:40:02;101074.38;;;22.82;45.61
57234;BME280;43090;52.604;13.318;2022-08-21T12:00:28;101050.50;;;22.21;44.76
57234;BME280;43090;52.604;13.318;2022-08-21T12:14:51;101044.19;;;22.60;44.72
57234;BME280;43090;52.604;13.318;2022-08-21T12:25:35;101049.28;;;22.86;42.36
57234;BME280;43090;52.604;13.318;2022-08-21T12:28:33;101050.13;;;23.10;44.80
57234;BME280;43090;52.604;13.318;2022-08-21T12:35:17;101040.97;;;23.41;41.27
57234;BME280;43090;52.604;13.318;2022-08-21T12:38:07;101022.31;;;23.06;45.20
57234;BME280;43090;52.604;13.318;2022-08-21T12:40:55;101012.22;;;23.30;42.31
57234;BME280;43090;52.604;13.318;2022-08-21T12:43:42;101002.19;;;22.84;45.47
57234;BME280;43090;52.604;13.318;2022-08-21T12:46:21;101013.06;;;23.31;43.30
57234;BME280;43090;52.604;13.318;2022-08-21T12:49:33;101026.91;;;23.44;44.96
57234;BME280;43090;52.604;13.318;2022-08-21T12:55:53;101010.72;;;23.27;41.70
57234;BME280;43090;52.604;13.318;2022-08-21T12:58:34;100994.19;;;22.83;43.25
57234;BME280;43090;52.604;13.318;2022-08-21T13:01:30;101050.88;;;23.72;42.04
57234;BME280;43090;52.604;13.318;2022-08-21T13:04:32;101039.75;;;23.58;43.81
57234;BME280;43090;52.604;13.318;2022-08-21T13:07:55;100988.47;;;23.45;42.14
57234;BME280;43090;52.604;13.318;2022-08-21T13:11:04;101023.84;;;23.47;47.05
57234;BME280;43090;52.604;13.318;2022-08-21T13:14:02;100992.03;;;23.16;46.47
57234;BME280;43090;52.604;13.318;2022-08-21T13:17:49;101035.25;;;23.66;43.06
57234;BME280;43090;52.604;13.318;2022-08-21T13:20:39;101001.09;;;23.46;44.28
57234;BME280;43090;52.604;13.318;2022-08-21T20:36:51;101058.09;;;17.03;84.04
57234;BME280;43090;52.604;13.318;2022-08-21T20:44:13;101087.97;;;16.91;86.44
57234;BME280;43090;52.604;13.318;2022-08-21T20:46:57;101091.25;;;17.05;85.59
57234;BME280;43090;52.604;13.318;2022-08-21T20:49:48;101089.09;;;17.28;83.74
57234;BME280;43090;52.604;13.318;2022-08-21T20:52:25;101060.63;;;16.85;85.88
57234;BME280;43090;52.604;13.318;2022-08-21T20:54:59;101066.16;;;16.73;86.50
57234;BME280;43090;52.604;13.318;2022-08-21T20:57:45;101056.34;;;16.53;87.39
57234;BME280;43090;52.604;13.318;2022-08-21T21:00:20;101090.22;;;16.86;88.14
57234;BME280;43090;52.604;13.318;2022-08-21T21:02:55;101088.91;;;16.61;88.62
57234;BME280;43090;52.604;13.318;2022-08-21T21:05:29;101037.56;;;16.51;86.72
57234;BME280;43090;52.604;13.318;2022-08-21T21:08:24;101061.16;;;16.49;87.76
57234;BME280;43090;52.604;13.318;2022-08-21T21:11:15;101047.81;;;16.77;85.06
57234;BME280;43090;52.604;13.318;2022-08-21T21:13:59;101093.53;;;16.99;85.39
57234;BME280;43090;52.604;13.318;2022-08-21T21:19:05;101089.94;;;16.70;88.16
57234;BME280;43090;52.604;13.318;2022-08-21T21:21:40;101033.25;;;16.29;88.94
57234;BME280;43090;52.604;13.318;2022-08-21T21:24:21;101066.72;;;16.77;87.05
57234;BME280;43090;52.604;13.318;2022-08-21T21:27:02;101105.28;;;16.59;90.92
57234;BME280;43090;52.604;13.318;2022-08-21T21:29:59;101076.50;;;16.39;91.25
57234;BME280;43090;52.604;13.318;2022-08-21T21:32:33;101094.38;;;16.20;91.94
57234;BME280;43090;52.604;13.318;2022-08-21T21:35:04;101078.50;;;16.37;91.36
57234;BME280;43090;52.604;13.318;2022-08-21T21:37:47;101053.38;;;16.05;92.04
57234;BME280;43090;52.604;13.318;2022-08-21T21:40:55;101105.00;;;16.53;92.11
57234;BME280;43090;52.604;13.318;2022-08-21T21:46:25;101105.28;;;16.59;88.10
57234;BME280;43090;52.604;13.318;2022-08-21T21:49:10;101110.72;;;16.89;87.39
57234;BME280;43090;52.604;13.318;2022-08-21T21:51:53;101096.63;;;16.75;88.14
57234;BME280;43090;52.604;13.318;2022-08-21T21:54:57;101086.22;;;16.71;89.08
57234;BME280;43090;52.604;13.318;2022-08-21T21:57:57;101104.69;;;16.65;88.78
57234;BME280;43090;52.604;13.318;2022-08-21T22:00:31;101089.00;;;16.30;90.31
57234;BME280;43090;52.604;13.318;2022-08-21T22:03:10;101118.50;;;16.53;89.66
57234;BME280;43090;52.604;13.318;2022-08-21T22:06:06;101087.31;;;16.39;90.59
57234;BME280;43090;52.604;13.318;2022-08-21T22:16:06;101110.09;;;16.46;91.50
57234;BME280;43090;52.604;13.318;2022-08-21T22:18:41;101051.53;;;15.75;93.36
57234;BME280;43090;52.604;13.318;2022-08-21T22:21:16;101117.44;;;15.93;95.47
57234;BME280;43090;52.604;13.318;2022-08-21T22:23:56;101073.13;;;16.06;92.76
57234;BME280;43090;52.604;13.318;2022-08-21T22:26:35;101070.78;;;16.22;91.07
57234;BME280;43090;52.604;13.318;2022-08-21T22:29:09;101103.00;;;16.55;89.95
57234;BME280;43090;52.604;13.318;2022-08-21T22:31:37;101111.47;;;16.40;91.44
57234;BME280;43090;52.604;13.318;2022-08-21T22:34:12;101122.03;;;16.43;91.84
57234;BME280;43090;52.604;13.318;2022-08-21T22:36:56;101128.28;;;16.44;92.86
57234;BME280;43090;52.604;13.318;2022-08-21T22:39:28;101076.44;;;16.19;92.04
57234;BME280;43090;52.604;13.318;2022-08-21T22:42:12;101103.34;;;15.90;95.13
57234;BME280;43090;52.604;13.318;2022-08-21T22:45:08;101117.44;;;15.72;96.20
57234;BME280;43090;52.604;13.318;2022-08-21T22:47:44;101104.09;;;15.71;97.56
57234;BME280;43090;52.604;13.318;2022-08-21T22:50:20;101130.78;;;15.85;96.99
57234;BME280;43090;52.604;13.318;2022-08-21T22:52:56;101097.00;;;15.48;97.82
57234;BME280;43090;52.604;13.318;2022-08-21T22:55:54;101061.84;;;15.60;96.56
57234;BME280;43090;52.604;13.318;2022-08-21T22:58:25;101088.75;;;15.50;97.88
57234;BME280;43090;52.604;13.318;2022-08-21T23:00:57;101129.09;;;15.73;97.74
57234;BME280;43090;52.604;13.318;2022-08-21T23:03:44;101126.47;;;15.61;97.59
57234;BME280;43090;52.604;13.318;2022-08-21T23:09:18;101073.78;;;15.88;93.99
57234;BME280;43090;52.604;13.318;2022-08-21T23:11:46;101078.03;;;15.81;95.97
57234;BME280;43090;52.604;13.318;2022-08-21T23:14:16;101105.34;;;16.28;93.50
57234;BME280;43090;52.604;13.318;2022-08-21T23:17:00;101127.94;;;15.87;95.69
57234;BME280;43090;52.604;13.318;2022-08-21T23:22:42;101114.75;;;15.93;95.62
57234;BME280;43090;52.604;13.318;2022-08-21T23:25:43;101124.97;;;16.21;95.53
57234;BME280;43090;52.604;13.318;2022-08-21T23:30:57;101125.75;;;15.80;95.93
57234;BME280;43090;52.604;13.318;2022-08-21T23:33:59;101111.78;;;15.75;97.30
57234;BME280;43090;52.604;13.318;2022-08-21T23:39:54;101089.00;;;15.89;95.30
57234;BME280;43090;52.604;13.318;2022-08-21T23:42:50;101096.69;;;15.94;95.52
57234;BME280;43090;52.604;13.318;2022-08-21T23:51:10;101080.84;;;15.37;97.94
57234;BME280;43090;52.604;13.318;2022-08-21T23:57:07;101122.84;;;15.51;96.65
